createdAt,value
2022-08-27T00:00:01.128Z,16.63
2022-08-27T00:02:27.917Z,14.38
2022-08-27T00:04:54.630Z,16.67
2022-08-27T00:07:21.364Z,16.48
2022-08-27T00:09:48.135Z,18.20
2022-08-27T00:12:14.828Z,15.88
2022-08-27T00:14:41.587Z,18.30
2022-08-27T00:17:08.483Z,13.15
2022-08-27T00:19:36.732Z,22.98
2022-08-27T00:22:05.622Z,18.48
2022-08-27T00:24:32.423Z,11.73
2022-08-27T00:27:21.512Z,14.35
2022-08-27T00:29:48.272Z,13.95
2022-08-27T00:32:15.540Z,19.08
2022-08-27T00:34:42.359Z,13.50
2022-08-27T00:37:09.167Z,14.75
2022-08-27T00:39:37.090Z,13.93
2022-08-27T00:42:07.863Z,10.80
2022-08-27T00:44:34.926Z,13.88
2022-08-27T00:47:06.892Z,12.27
2022-08-27T00:49:56.349Z,19.60
2022-08-27T00:52:40.407Z,22.83
2022-08-27T00:55:13.881Z,13.77
2022-08-27T00:57:45.173Z,14.32
2022-08-27T01:00:16.554Z,15.80
2022-08-27T01:02:43.758Z,16.02
2022-08-27T01:05:15.194Z,15.00
2022-08-27T01:07:44.222Z,14.35
2022-08-27T01:10:14.254Z,16.23
2022-08-27T01:12:41.179Z,17.63
2022-08-27T01:15:19.383Z,15.57
2022-08-27T01:17:48.300Z,14.15
2022-08-27T01:20:25.794Z,18.58
2022-08-27T01:23:16.530Z,17.65
2022-08-27T01:25:46.410Z,13.35
2022-08-27T01:28:14.239Z,12.60
2022-08-27T01:30:44.275Z,14.45
2022-08-27T01:33:14.617Z,12.70
2022-08-27T01:35:43.435Z,14.70
2022-08-27T01:38:18.914Z,15.35
2022-08-27T01:40:57.579Z,15.25
2022-08-27T01:43:24.927Z,17.45
2022-08-27T01:45:52.293Z,13.63
2022-08-27T01:48:21.250Z,12.18
2022-08-27T01:50:48.503Z,15.65
2022-08-27T01:53:19.042Z,15.05
2022-08-27T01:55:47.708Z,15.38
2022-08-27T01:58:15.885Z,18.05
2022-08-27T02:00:45.377Z,10.43
2022-08-27T02:03:12.832Z,15.85
2022-08-27T02:05:45.032Z,16.98
2022-08-27T02:08:13.486Z,22.73
2022-08-27T02:10:40.707Z,15.43
2022-08-27T02:13:08.201Z,19.30
2022-08-27T02:15:37.067Z,17.60
2022-08-27T02:18:04.957Z,21.23
2022-08-27T02:20:31.792Z,18.98
2022-08-27T02:22:58.984Z,19.83
2022-08-27T02:25:27.685Z,18.98
2022-08-27T02:27:54.624Z,18.90
2022-08-27T02:30:24.239Z,19.10
2022-08-27T02:32:52.955Z,20.83
2022-08-27T02:35:21.855Z,16.95
2022-08-27T02:37:49.404Z,15.25
2022-08-27T02:40:18.241Z,19.80
2022-08-27T02:42:46.009Z,18.42
2022-08-27T02:45:14.294Z,23.95
2022-08-27T02:47:41.258Z,25.00
2022-08-27T02:50:09.293Z,17.42
2022-08-27T02:52:36.648Z,18.00
2022-08-27T02:55:05.367Z,19.95
2022-08-27T02:57:36.478Z,24.58
2022-08-27T03:00:06.735Z,18.25
2022-08-27T03:02:33.564Z,23.20
2022-08-27T03:05:00.349Z,26.95
2022-08-27T03:07:30.166Z,25.10
2022-08-27T03:09:56.822Z,22.73
2022-08-27T03:12:24.821Z,29.70
2022-08-27T03:14:51.784Z,30.55
2022-08-27T03:17:37.043Z,26.10
2022-08-27T03:20:06.521Z,29.77
2022-08-27T03:22:33.227Z,26.70
2022-08-27T03:25:02.782Z,32.42
2022-08-27T03:27:29.601Z,35.47
2022-08-27T03:29:59.577Z,36.47
2022-08-27T03:32:28.856Z,38.20
2022-08-27T03:34:59.554Z,35.03
2022-08-27T03:37:26.436Z,37.35
2022-08-27T03:39:53.348Z,37.60
2022-08-27T03:42:20.149Z,42.75
2022-08-27T03:44:47.643Z,49.00
2022-08-27T03:47:14.499Z,47.95
2022-08-27T03:49:41.685Z,49.33
2022-08-27T03:52:09.070Z,42.17
2022-08-27T03:54:39.106Z,54.65
2022-08-27T03:57:06.539Z,55.22
2022-08-27T03:59:33.579Z,59.53
2022-08-27T04:02:01.325Z,66.07
2022-08-27T04:04:28.484Z,56.33
2022-08-27T04:06:55.221Z,51.55
2022-08-27T04:09:26.064Z,54.92
2022-08-27T04:11:52.782Z,55.88
2022-08-27T04:14:26.242Z,65.50
2022-08-27T04:16:56.147Z,58.97
2022-08-27T04:19:27.774Z,61.10
2022-08-27T04:22:01.024Z,56.35
2022-08-27T04:24:28.746Z,66.45
2022-08-27T04:26:55.670Z,60.42
2022-08-27T04:29:22.626Z,68.40
2022-08-27T04:31:50.236Z,74.32
2022-08-27T04:34:17.808Z,82.72
2022-08-27T04:36:46.101Z,53.38
2022-08-27T04:39:14.144Z,56.85
2022-08-27T04:41:41.608Z,59.58
2022-08-27T04:44:10.681Z,81.35
2022-08-27T04:46:39.912Z,69.53
2022-08-27T04:49:11.068Z,58.53
2022-08-27T04:51:39.909Z,69.47
2022-08-27T04:54:08.393Z,105.43
2022-08-27T04:56:36.798Z,131.25
2022-08-27T04:59:06.963Z,79.30
2022-08-27T05:01:34.795Z,59.83
2022-08-27T05:04:01.890Z,50.92
2022-08-27T05:06:29.125Z,56.15
2022-08-27T05:08:56.933Z,53.85
2022-08-27T05:11:27.231Z,49.97
2022-08-27T05:13:54.218Z,54.42
2022-08-27T05:16:23.411Z,50.03
2022-08-27T05:18:51.934Z,50.15
2022-08-27T05:21:23.481Z,51.40
2022-08-27T05:23:51.519Z,63.10
2022-08-27T05:26:19.015Z,54.63
2022-08-27T05:28:46.170Z,60.60
2022-08-27T05:31:15.274Z,55.85
2022-08-27T05:33:43.656Z,70.97
2022-08-27T05:36:31.551Z,62.78
2022-08-27T05:39:01.044Z,55.63
2022-08-27T05:41:33.888Z,50.97
2022-08-27T05:44:23.995Z,57.55
2022-08-27T05:46:52.585Z,59.13
2022-08-27T05:49:19.395Z,59.42
2022-08-27T05:51:46.096Z,60.97
2022-08-27T05:54:19.023Z,60.92
2022-08-27T05:56:46.523Z,62.67
2022-08-27T05:59:34.594Z,55.95
2022-08-27T06:02:02.788Z,56.38
2022-08-27T06:04:30.004Z,50.50
2022-08-27T06:06:56.832Z,46.70
2022-08-27T06:09:26.503Z,48.70
2022-08-27T06:11:54.487Z,52.92
2022-08-27T06:14:21.387Z,47.47
2022-08-27T06:16:48.758Z,51.08
2022-08-27T06:19:16.194Z,53.05
2022-08-27T06:21:43.512Z,57.60
2022-08-27T06:24:13.003Z,43.60
2022-08-27T06:26:42.284Z,48.58
2022-08-27T06:29:09.910Z,54.42
2022-08-27T06:31:37.409Z,56.80
2022-08-27T06:34:08.264Z,48.88
2022-08-27T06:36:40.802Z,52.53
2022-08-27T06:39:08.841Z,58.13
2022-08-27T06:41:35.732Z,52.00
2022-08-27T06:44:03.051Z,50.38
2022-08-27T06:46:30.179Z,54.75
2022-08-27T06:48:59.844Z,48.95
2022-08-27T06:51:32.417Z,54.40
2022-08-27T06:54:02.497Z,50.28
2022-08-27T06:56:30.131Z,51.63
2022-08-27T06:58:58.926Z,48.45
2022-08-27T07:01:31.572Z,51.42
2022-08-27T07:04:01.191Z,48.42
2022-08-27T07:06:30.151Z,49.95
2022-08-27T07:08:59.810Z,52.80
2022-08-27T07:11:28.595Z,43.92
2022-08-27T07:13:56.163Z,49.22
2022-08-27T07:16:25.690Z,41.53
2022-08-27T07:18:54.753Z,40.40
2022-08-27T07:21:22.969Z,42.42
2022-08-27T07:23:52.199Z,36.25
2022-08-27T07:26:21.687Z,35.65
2022-08-27T07:28:50.224Z,34.53
2022-08-27T07:31:20.184Z,27.70
2022-08-27T07:33:52.813Z,40.63
2022-08-27T07:36:23.701Z,31.33
2022-08-27T07:39:01.329Z,31.95
2022-08-27T07:41:57.741Z,29.50
2022-08-27T07:44:26.097Z,30.92
2022-08-27T07:46:55.840Z,31.85
2022-08-27T07:49:23.790Z,28.10
2022-08-27T07:51:50.941Z,27.60
2022-08-27T07:54:18.300Z,29.92
2022-08-27T07:56:49.543Z,34.67
2022-08-27T07:59:24.323Z,28.02
2022-08-27T08:01:51.747Z,28.90
2022-08-27T08:04:20.448Z,26.98
2022-08-27T08:06:48.578Z,27.60
2022-08-27T08:09:15.683Z,26.42
2022-08-27T08:11:45.865Z,20.45
2022-08-27T08:14:15.535Z,25.83
2022-08-27T08:16:45.863Z,26.55
2022-08-27T08:19:13.168Z,29.10
2022-08-27T08:21:40.214Z,30.75
2022-08-27T08:24:07.202Z,23.88
2022-08-27T08:26:34.153Z,26.60
2022-08-27T08:29:04.793Z,23.95
2022-08-27T08:31:31.825Z,24.48
2022-08-27T08:33:58.699Z,24.55
2022-08-27T08:36:25.493Z,20.95
2022-08-27T08:38:53.682Z,22.33
2022-08-27T08:41:52.374Z,20.50
2022-08-27T08:44:25.044Z,21.70
2022-08-27T08:47:15.836Z,20.55
2022-08-27T08:50:03.443Z,19.70
2022-08-27T08:52:48.481Z,20.80
2022-08-27T08:55:39.919Z,19.02
2022-08-27T08:58:31.969Z,22.85
2022-08-27T09:01:02.494Z,23.77
2022-08-27T09:03:33.013Z,18.65
2022-08-27T09:06:22.163Z,18.25
2022-08-27T09:08:49.237Z,19.95
2022-08-27T09:11:40.934Z,20.38
2022-08-27T09:14:34.282Z,16.80
2022-08-27T09:17:02.575Z,20.87
2022-08-27T09:19:36.193Z,15.63
2022-08-27T09:22:11.248Z,18.98
2022-08-27T09:25:02.640Z,15.02
2022-08-27T09:27:30.158Z,16.17
2022-08-27T09:29:57.533Z,16.27
2022-08-27T09:32:27.065Z,14.18
2022-08-27T09:34:58.367Z,14.70
2022-08-27T09:37:34.412Z,14.73
2022-08-27T09:40:23.697Z,15.48
2022-08-27T09:42:53.792Z,18.50
2022-08-27T09:45:29.870Z,13.18
2022-08-27T09:48:04.450Z,14.48
2022-08-27T09:50:43.711Z,12.10
2022-08-27T09:53:33.308Z,11.02
2022-08-27T09:56:03.222Z,13.57
2022-08-27T09:58:47.581Z,12.50
2022-08-27T10:03:45.878Z,11.45
2022-08-27T10:06:12.910Z,12.88
2022-08-27T10:08:52.656Z,11.27
2022-08-27T10:11:29.515Z,12.15
2022-08-27T10:14:02.572Z,14.93
2022-08-27T10:16:41.282Z,13.07
2022-08-27T10:19:36.670Z,9.93
2022-08-27T10:22:16.918Z,13.82
2022-08-27T10:25:06.674Z,13.32
2022-08-27T10:27:49.761Z,12.07
2022-08-27T10:30:21.151Z,10.60
2022-08-27T10:33:03.836Z,14.75
2022-08-27T10:35:54.337Z,13.93
2022-08-27T10:38:42.458Z,10.88
2022-08-27T10:41:20.732Z,9.73
2022-08-27T10:44:06.296Z,13.48
2022-08-27T10:46:50.404Z,9.68
2022-08-27T10:49:26.762Z,10.25
2022-08-27T10:52:12.440Z,12.48
2022-08-27T10:54:43.035Z,9.95
2022-08-27T10:57:56.493Z,14.30
2022-08-27T11:00:42.998Z,11.60
2022-08-27T11:03:21.943Z,10.13
2022-08-27T11:05:51.045Z,14.10
2022-08-27T11:08:27.667Z,13.65
2022-08-27T11:11:26.095Z,12.98
2022-08-27T11:13:51.691Z,9.45
2022-08-27T11:16:27.372Z,11.82
2022-08-27T11:18:59.498Z,12.98
2022-08-27T11:21:43.586Z,11.63
2022-08-27T11:24:16.458Z,8.10
2022-08-27T11:26:44.333Z,8.18
2022-08-27T11:29:26.389Z,9.75
2022-08-27T11:32:15.691Z,8.20
2022-08-27T11:34:48.271Z,8.77
2022-08-27T11:37:21.715Z,6.03
2022-08-27T11:40:07.852Z,9.63
2022-08-27T11:42:42.132Z,12.02
2022-08-27T11:45:18.327Z,8.68
2022-08-27T11:48:00.729Z,8.45
2022-08-27T11:50:31.107Z,7.35
2022-08-27T11:53:06.270Z,11.88
2022-08-27T11:55:38.919Z,8.52
2022-08-27T11:58:07.903Z,7.70
2022-08-27T12:00:41.892Z,9.18
2022-08-27T12:05:53.179Z,7.07
2022-08-27T12:08:22.627Z,12.27
2022-08-27T12:11:24.541Z,9.45
2022-08-27T12:14:12.342Z,10.52
2022-08-27T12:16:51.591Z,9.02
2022-08-27T12:19:56.887Z,12.65
2022-08-27T12:22:57.190Z,7.82
2022-08-27T12:25:25.368Z,7.10
2022-08-27T12:27:59.467Z,11.68
2022-08-27T12:30:49.220Z,6.18
2022-08-27T12:33:21.719Z,7.18
2022-08-27T12:35:52.509Z,9.15
2022-08-27T12:38:39.855Z,9.43
2022-08-27T12:41:11.318Z,8.52
2022-08-27T12:43:43.347Z,9.57
2022-08-27T12:46:19.170Z,12.07
2022-08-27T12:48:50.039Z,7.30
2022-08-27T12:51:23.616Z,10.00
2022-08-27T12:54:29.974Z,7.05
2022-08-27T12:57:23.287Z,8.68
2022-08-27T13:00:05.000Z,8.43
2022-08-27T13:02:50.885Z,9.88
2022-08-27T13:05:22.787Z,9.60
2022-08-27T13:07:51.202Z,8.63
2022-08-27T13:10:21.226Z,10.63
2022-08-27T13:12:59.433Z,9.43
2022-08-27T13:15:26.246Z,9.77
2022-08-27T13:17:53.083Z,11.65
2022-08-27T13:20:24.328Z,10.57
2022-08-27T13:22:53.379Z,13.10
2022-08-27T13:25:33.189Z,11.07
2022-08-27T13:28:17.036Z,11.02
2022-08-27T13:30:47.029Z,9.32
2022-08-27T13:33:19.487Z,10.82
2022-08-27T13:35:47.470Z,12.48
2022-08-27T13:38:15.845Z,9.27
2022-08-27T13:41:20.187Z,9.40
2022-08-27T13:43:48.939Z,11.68
2022-08-27T13:46:22.645Z,9.82
2022-08-27T13:48:52.887Z,11.77
2022-08-27T13:51:35.301Z,10.02
2022-08-27T13:54:15.965Z,9.27
2022-08-27T13:56:49.664Z,11.68
2022-08-27T13:59:30.346Z,17.30
2022-08-27T14:02:11.218Z,12.57
2022-08-27T14:04:40.559Z,9.88
2022-08-27T14:07:25.225Z,12.25
2022-08-27T14:10:02.105Z,9.93
2022-08-27T14:12:33.743Z,10.82
2022-08-27T14:15:23.262Z,13.40
2022-08-27T14:17:51.051Z,8.95
2022-08-27T14:20:19.491Z,10.55
2022-08-27T14:22:47.142Z,15.02
2022-08-27T14:25:15.515Z,10.80
2022-08-27T14:27:52.799Z,18.60
2022-08-27T14:30:29.069Z,10.70
2022-08-27T14:33:00.737Z,10.63
2022-08-27T14:35:30.063Z,10.32
2022-08-27T14:37:57.766Z,10.05
2022-08-27T14:40:24.601Z,10.57
2022-08-27T14:42:52.548Z,11.98
2022-08-27T14:45:19.569Z,10.60
2022-08-27T14:47:46.363Z,14.18
2022-08-27T14:50:14.027Z,12.00
2022-08-27T14:52:40.793Z,13.65
2022-08-27T14:55:10.830Z,10.48
2022-08-27T14:57:38.133Z,12.60
2022-08-27T15:00:07.095Z,10.43
2022-08-27T15:02:35.093Z,11.90
2022-08-27T15:05:03.400Z,17.65
2022-08-27T15:07:38.813Z,10.38
2022-08-27T15:10:09.582Z,14.50
2022-08-27T15:12:37.314Z,12.68
2022-08-27T15:15:05.660Z,11.35
2022-08-27T15:17:34.978Z,11.55
2022-08-27T15:20:08.057Z,12.30
2022-08-27T15:22:36.570Z,10.73
2022-08-27T15:25:05.473Z,12.55
2022-08-27T15:27:38.116Z,11.18
2022-08-27T15:30:11.600Z,12.77
2022-08-27T15:32:42.021Z,13.20
2022-08-27T15:35:14.049Z,8.52
2022-08-27T15:37:42.502Z,9.20
2022-08-27T15:40:10.656Z,12.88
2022-08-27T15:42:37.676Z,10.25
2022-08-27T15:45:05.620Z,11.52
2022-08-27T15:47:34.103Z,12.70
2022-08-27T15:50:01.058Z,9.10
2022-08-27T15:52:36.366Z,9.75
2022-08-27T15:55:17.913Z,12.05
2022-08-27T15:57:44.545Z,10.65
2022-08-27T16:00:12.004Z,13.18
2022-08-27T16:02:38.923Z,9.75
2022-08-27T16:05:06.218Z,11.30
2022-08-27T16:07:32.915Z,12.43
2022-08-27T16:09:59.541Z,18.67
2022-08-27T16:12:27.357Z,11.25
2022-08-27T16:14:55.558Z,15.20
2022-08-27T16:17:23.430Z,11.63
2022-08-27T16:19:50.094Z,11.23
2022-08-27T16:22:16.908Z,8.82
2022-08-27T16:24:44.351Z,11.68
2022-08-27T16:27:11.303Z,13.77
2022-08-27T16:29:37.955Z,8.88
2022-08-27T16:32:06.277Z,12.75
2022-08-27T16:34:35.210Z,11.10
2022-08-27T16:37:01.856Z,19.55
2022-08-27T16:39:33.749Z,11.13
2022-08-27T16:42:03.484Z,9.75
2022-08-27T16:44:31.431Z,11.20
2022-08-27T16:46:58.175Z,9.00
2022-08-27T16:49:43.275Z,10.82
2022-08-27T16:52:10.064Z,14.90
2022-08-27T16:54:37.157Z,13.50
2022-08-27T16:57:04.560Z,8.68
2022-08-27T16:59:31.225Z,12.68
2022-08-27T17:01:58.229Z,17.30
2022-08-27T17:04:31.233Z,11.32
2022-08-27T17:07:02.399Z,12.73
2022-08-27T17:09:30.243Z,15.45
2022-08-27T17:11:57.927Z,11.70
2022-08-27T17:14:25.000Z,7.85
2022-08-27T17:16:53.770Z,11.98
2022-08-27T17:19:22.285Z,15.15
2022-08-27T17:21:50.079Z,12.82
2022-08-27T17:24:17.468Z,9.80
2022-08-27T17:26:44.150Z,13.55
2022-08-27T17:29:11.059Z,11.45
2022-08-27T17:31:40.477Z,9.77
2022-08-27T17:34:15.416Z,9.90
2022-08-27T17:36:44.227Z,14.38
2022-08-27T17:39:11.534Z,9.57
2022-08-27T17:41:42.571Z,10.82
2022-08-27T17:44:38.984Z,13.75
2022-08-27T17:47:07.916Z,15.18
2022-08-27T17:49:35.343Z,13.52
2022-08-27T17:52:05.918Z,11.02
2022-08-27T17:54:40.339Z,10.10
2022-08-27T17:57:29.274Z,11.82
2022-08-27T17:59:59.443Z,13.00
2022-08-27T18:02:34.532Z,9.40
2022-08-27T18:05:01.599Z,9.35
2022-08-27T18:07:28.557Z,13.82
2022-08-27T18:09:55.477Z,9.27
2022-08-27T18:12:24.933Z,10.70
2022-08-27T18:15:26.912Z,14.07
2022-08-27T18:17:54.800Z,11.15
2022-08-27T18:20:26.168Z,9.20
2022-08-27T18:22:53.799Z,10.55
2022-08-27T18:25:24.887Z,10.70
2022-08-27T18:27:54.514Z,18.23
2022-08-27T18:30:21.575Z,7.80
2022-08-27T18:32:48.724Z,13.90
2022-08-27T18:35:20.085Z,13.23
2022-08-27T18:37:47.711Z,12.70
2022-08-27T18:40:16.778Z,10.70
2022-08-27T18:42:44.061Z,8.88
2022-08-27T18:45:15.504Z,13.45
2022-08-27T18:47:42.857Z,10.60
2022-08-27T18:50:17.553Z,11.93
2022-08-27T18:52:50.081Z,12.80
2022-08-27T18:55:19.293Z,7.78
2022-08-27T18:57:46.385Z,12.63
2022-08-27T19:00:15.647Z,10.93
2022-08-27T19:02:43.123Z,17.40
2022-08-27T19:05:11.146Z,13.68
2022-08-27T19:07:38.145Z,19.05
2022-08-27T19:10:06.409Z,15.20
2022-08-27T19:12:33.059Z,14.35
2022-08-27T19:14:59.925Z,18.27
2022-08-27T19:17:30.756Z,23.45
2022-08-27T19:19:57.942Z,11.13
2022-08-27T19:22:25.200Z,14.55
2022-08-27T19:24:52.758Z,17.30
2022-08-27T19:27:24.986Z,12.00
2022-08-27T19:29:52.952Z,12.00
2022-08-27T19:32:20.565Z,11.77
2022-08-27T19:34:47.873Z,11.30
2022-08-27T19:37:25.133Z,14.10
2022-08-27T19:39:52.428Z,16.20
2022-08-27T19:42:19.316Z,15.20
2022-08-27T19:44:46.079Z,18.92
2022-08-27T19:47:14.693Z,17.20
2022-08-27T19:49:44.877Z,12.07
2022-08-27T19:52:12.056Z,11.45
2022-08-27T19:54:51.993Z,12.05
2022-08-27T19:57:23.928Z,16.20
2022-08-27T19:59:50.595Z,12.18
2022-08-27T20:02:17.262Z,12.35
2022-08-27T20:05:01.337Z,15.13
2022-08-27T20:07:30.961Z,13.45
2022-08-27T20:10:08.042Z,11.38
2022-08-27T20:12:35.390Z,13.63
2022-08-27T20:15:02.051Z,15.43
2022-08-27T20:17:28.827Z,9.60
2022-08-27T20:19:56.071Z,10.52
2022-08-27T20:22:23.016Z,14.52
2022-08-27T20:24:49.700Z,9.65
2022-08-27T20:27:16.455Z,9.15
2022-08-27T20:29:43.345Z,10.30
2022-08-27T20:32:10.073Z,10.90
2022-08-27T20:34:37.433Z,9.20
2022-08-27T20:37:05.337Z,11.15
2022-08-27T20:39:32.689Z,7.22
2022-08-27T20:41:59.477Z,12.40
2022-08-27T20:44:26.363Z,9.32
2022-08-27T20:46:57.915Z,6.78
2022-08-27T20:49:24.584Z,10.88
2022-08-27T20:52:03.335Z,11.23
2022-08-27T20:54:32.122Z,6.85
2022-08-27T20:56:59.165Z,6.47
2022-08-27T20:59:44.816Z,12.23
2022-08-27T21:02:13.655Z,4.05
2022-08-27T21:04:43.214Z,6.35
2022-08-27T21:07:09.881Z,6.80
2022-08-27T21:09:55.473Z,6.97
2022-08-27T21:12:23.736Z,8.90
2022-08-27T21:14:55.701Z,9.32
2022-08-27T21:17:24.622Z,5.13
2022-08-27T21:19:51.695Z,7.43
2022-08-27T21:22:18.845Z,6.45
2022-08-27T21:24:47.401Z,7.05
2022-08-27T21:27:15.940Z,5.70
2022-08-27T21:29:44.750Z,9.40
2022-08-27T21:32:11.871Z,5.63
2022-08-27T21:34:38.642Z,5.32
2022-08-27T21:37:05.487Z,9.40
2022-08-27T21:39:34.171Z,4.47
2022-08-27T21:42:01.750Z,4.65
2022-08-27T21:44:30.350Z,6.32
2022-08-27T21:46:57.794Z,4.70
2022-08-27T21:49:24.580Z,6.53
2022-08-27T21:51:51.456Z,3.80
2022-08-27T21:54:18.199Z,4.93
2022-08-27T21:56:45.550Z,7.97
2022-08-27T21:59:12.289Z,6.20
2022-08-27T22:01:39.420Z,4.55
2022-08-27T22:04:06.373Z,5.18
2022-08-27T22:06:33.163Z,3.67
2022-08-27T22:08:59.962Z,4.18
2022-08-27T22:11:30.557Z,9.35
2022-08-27T22:13:57.641Z,9.35
2022-08-27T22:16:24.505Z,9.10
2022-08-27T22:18:54.476Z,5.40
2022-08-27T22:21:22.236Z,8.38
2022-08-27T22:23:51.362Z,5.35
2022-08-27T22:26:19.312Z,3.90
2022-08-27T22:28:46.134Z,4.03
2022-08-27T22:31:13.145Z,3.88
2022-08-27T22:33:39.981Z,6.30
2022-08-27T22:36:06.869Z,4.88
2022-08-27T22:38:33.766Z,6.72
2022-08-27T22:41:00.746Z,8.18
2022-08-27T22:43:27.831Z,5.80
2022-08-27T22:45:54.634Z,5.93
2022-08-27T22:48:21.313Z,9.52
2022-08-27T22:50:47.981Z,4.55
2022-08-27T22:53:14.791Z,10.18
2022-08-27T22:55:41.526Z,7.20
2022-08-27T22:58:08.280Z,10.55
2022-08-27T23:00:37.462Z,8.23
2022-08-27T23:03:06.761Z,7.65
2022-08-27T23:05:41.599Z,14.85
2022-08-27T23:08:10.598Z,5.90
2022-08-27T23:10:38.122Z,7.30
2022-08-27T23:13:05.823Z,10.43
2022-08-27T23:15:32.551Z,5.43
2022-08-27T23:18:01.462Z,8.75
2022-08-27T23:20:29.698Z,11.60
2022-08-27T23:22:57.061Z,12.73
2022-08-27T23:25:44.131Z,7.82
2022-08-27T23:28:14.652Z,7.03
2022-08-27T23:30:43.965Z,7.50
2022-08-27T23:33:11.673Z,7.80
2022-08-27T23:35:38.702Z,7.90
2022-08-27T23:38:05.772Z,7.85
2022-08-27T23:40:32.611Z,8.00
2022-08-27T23:42:59.509Z,11.82
2022-08-27T23:45:27.058Z,9.13
2022-08-27T23:47:53.937Z,6.47
2022-08-27T23:50:24.741Z,8.70
2022-08-27T23:53:01.703Z,11.60
2022-08-27T23:55:28.809Z,9.63
2022-08-27T23:57:57.686Z,8.93
